Flight Track Log - Related Links

Times and Time Zones

All times are in EDT time to prevent confusion due to time zone crossing. See the ASQ5256 flight status page for this flight to view local times or setup timezone preferences in your user account.

Time Position Orientation Groundspeed Altitude Reporting Facility
EDT Latitude Longitude Course Direction KTS MPH feet Rate Location/Type
Tue 09:14:55 PM 42.2061 -83.3672 199° South 165 190 1,500  Level Cleveland Center
Tue 09:15:07 PM 42.1972 -83.3714 199° South 166 191 2,100 2,466 Climbing Cleveland Center
Tue 09:16:08 PM 42.1375 -83.3856 190° South 243 280 4,500 2,656 Climbing Cleveland Center
Tue 09:17:09 PM 42.0631 -83.4003 188° South 272 313 7,500 3,000 Climbing Cleveland Center
Tue 09:18:16 PM 41.9806 -83.4036 182° South 274 315 10,900 2,651 Climbing Cleveland Center
Tue 09:19:18 PM 41.8947 -83.3872 172° South 308 354 13,200 2,341 Climbing Cleveland Center
Tue 09:20:19 PM 41.8014 -83.3672 171° South 338 389 15,700 2,488 Climbing Cleveland Center
Tue 09:21:21 PM 41.7058 -83.3603 177° South 344 396 18,300 2,195 Climbing Cleveland Center
Tue 09:22:22 PM 41.6069 -83.3689 184° South 349 402 20,200 1,659 Climbing Cleveland Center
Tue 09:23:24 PM 41.5033 -83.3792 184° South 370 426 21,700 1,463 Climbing Cleveland Center
Tue 09:24:25 PM 41.3947 -83.3889 184° South 387 445 23,200 1,463 Climbing Cleveland Center
Tue 09:25:27 PM 41.2828 -83.3986 184° South 400 460 24,700 1,610 Climbing Cleveland Center
Tue 09:26:28 PM 41.1467 -83.4117 184° South 408 470 26,500 1,512 Climbing Cleveland Center
Tue 09:27:30 PM 41.0508 -83.4203 184° South 410 472 27,800 1,512 Climbing Cleveland Center
Tue 09:28:31 PM 40.9122 -83.4328 184° South 412 474 29,600 1,561 Climbing Cleveland Center
Tue 09:29:33 PM 40.7969 -83.4442 184° South 416 479 31,000 683 Climbing Cleveland Center
Tue 09:30:34 PM 40.6764 -83.4556 184° South 432 497 31,000  Level Cleveland Center
Tue 09:31:19 PM 40.5786 -83.4631 183° South 439 505 31,000  Level Indianapolis Center
Tue 09:32:21 PM 40.4522 -83.4739 184° South 449 517 31,000  Level Indianapolis Center
Tue 09:33:22 PM 40.3283 -83.4850 184° South 449 517 31,000  Level Indianapolis Center
Tue 09:34:23 PM 40.2272 -83.3850 143° Southeast 467 537 31,000  Level Indianapolis Center
Tue 09:35:25 PM 40.1586 -83.2308 120° Southeast 479 551 31,000  Level Indianapolis Center
Tue 09:36:26 PM 40.0886 -83.0758 121° Southeast 486 559 31,000  Level Indianapolis Center
Tue 09:37:27 PM 40.0197 -82.9214 120° Southeast 486 559 31,000  Level Indianapolis Center
Tue 09:38:29 PM 39.9497 -82.7692 121° Southeast 486 559 31,000  Level Indianapolis Center
Tue 09:39:30 PM 39.8803 -82.6167 121° Southeast 486 559 31,000  Level Indianapolis Center
Tue 09:40:31 PM 39.8108 -82.4642 121° Southeast 486 559 31,000  Level Indianapolis Center
Tue 09:41:33 PM 39.7406 -82.3117 121° Southeast 487 560 31,000 -146 Level Indianapolis Center
Tue 09:42:34 PM 39.6558 -82.1275 121° Southeast 489 563 30,700 -829 Descending Indianapolis Center
Tue 09:43:36 PM 39.5867 -81.9739 120° Southeast 489 563 29,300 -829 Descending Indianapolis Center
Tue 09:44:37 PM 39.5158 -81.8247 122° Southeast 489 563 29,000 -148 Descending Indianapolis Center
Tue 09:45:38 PM 39.4461 -81.6764 121° Southeast 486 559 29,000  Level Indianapolis Center
Tue 09:46:40 PM 39.3753 -81.5256 121° Southeast 486 559 29,000  Level Indianapolis Center
Tue 09:47:41 PM 39.3031 -81.3728 121° Southeast 492 566 29,000  Level Indianapolis Center
Tue 09:48:43 PM 39.2300 -81.2206 122° Southeast 493 567 29,000  Level Indianapolis Center
Tue 09:49:44 PM 39.1578 -81.0669 121° Southeast 493 567 29,000  Level Indianapolis Center
Tue 09:50:45 PM 39.0833 -80.9142 122° Southeast 497 572 29,000  Level Indianapolis Center
Tue 09:51:47 PM 39.0114 -80.7631 121° Southeast 497 572 29,000  Level Indianapolis Center
Tue 09:52:48 PM 38.9383 -80.6114 122° Southeast 497 572 29,000  Level Indianapolis Center
Tue 09:53:50 PM 38.8650 -80.4619 122° Southeast 497 572 29,000 -439 Level Indianapolis Center
Tue 09:54:51 PM 38.7767 -80.2825 122° Southeast 496 571 28,100 -1,171 Descending Indianapolis Center
Tue 09:55:53 PM 38.7017 -80.1325 123° Southeast 496 571 26,600 -1,366 Descending Indianapolis Center
Tue 09:56:54 PM 38.6275 -79.9822 122° Southeast 496 571 25,300 -1,266 Descending Indianapolis Center
Tue 09:57:42 PM 38.5814 -79.8881 122° Southeast 494 568 24,300 -1,364 Descending Washington Center
Tue 09:58:44 PM 38.4969 -79.7164 122° Southeast 476 548 22,800 -1,171 Descending Washington Center
Tue 09:59:45 PM 38.4269 -79.5769 123° Southeast 470 541 21,900 -885 Descending Washington Center
Tue 10:00:46 PM 38.3564 -79.4364 123° Southeast 468 539 21,000 -439 Descending Washington Center
Tue 10:01:48 PM 38.2872 -79.2981 122° Southeast 465 535 21,000  Level Washington Center
Tue 10:02:50 PM 38.2178 -79.1603 123° Southeast 464 534 21,000  Level Washington Center
Tue 10:03:50 PM 38.1467 -79.0197 123° Southeast 465 535 21,000 -387 Level Washington Center
Tue 10:04:54 PM 38.0758 -78.8811 123° Southeast 465 535 20,200 -1,524 Descending Washington Center
Tue 10:05:56 PM 38.0078 -78.7506 123° Southeast 446 513 17,800 -2,231 Descending Washington Center
Tue 10:06:55 PM 37.9453 -78.6292 123° Southeast 416 479 15,700 -2,132 Descending Washington Center
Tue 10:07:57 PM 37.8839 -78.5078 123° Southeast 413 475 13,500 -2,256 Descending Washington Center
Tue 10:09:00 PM 37.8125 -78.3725 124° Southeast 386 444 11,000 -1,645 Descending Washington Center
Tue 10:10:01 PM 37.7611 -78.2742 123° Southeast 343 395 10,100 -934 Descending Washington Center
Tue 10:11:02 PM 37.7175 -78.1911 124° Southeast 293 337 9,100 -545 Descending Washington Center
Tue 10:12:02 PM 37.6794 -78.1156 122° Southeast 292 336 9,000 -49 Descending Washington Center
Tue 10:13:05 PM 37.6267 -78.0161 124° Southeast 289 333 9,000 -435 Level Washington Center
Tue 10:14:06 PM 37.5775 -77.9378 128° Southeast 288 331 8,100 -1,033 Descending Washington Center
Tue 10:15:07 PM 37.5253 -77.8642 132° Southeast 288 331 6,900 -1,152 Descending Washington Center
Tue 10:16:11 PM 37.4736 -77.7906 131° Southeast 286 329 5,700 -1,152 Descending Washington Center
Tue 10:17:12 PM 37.4247 -77.7203 131° Southeast 274 315 4,500 -1,171 Descending Washington Center
Tue 10:18:14 PM 37.3775 -77.6517 131° Southeast 265 305 3,300 -1,131 Descending Washington Center
Tue 10:19:14 PM 37.3406 -77.5644 118° Southeast 242 278 2,200 -645 Descending Washington Center
Tue 10:20:15 PM 37.3217 -77.4978 110° East 212 244 2,000 -96 Descending Washington Center
Tue 10:21:19 PM 37.3089 -77.4383 105° East 196 226 2,000  Level Washington Center
Tue 10:22:18 PM 37.3475 -77.3986 39° Northeast 185 213 2,000  Level Washington Center
Tue 10:23:21 PM 37.3878 -77.3625 35° Northeast 181 208 2,000 -242 Level Washington Center
Tue 10:24:22 PM 37.4325 -77.3494 13° North 166 191 1,500 -639 Descending Washington Center
Tue 10:25:23 PM 37.4775 -77.3361 13° North 143 165 700 -532 Descending Washington Center
Tue 10:26:26 PM 37.5125 -77.3258 13° North 142 163 400 -286 Descending Washington Center
Tue 10:28:00 PM 37.5052 -77.3197 25° Northeast  Level Estimated

Login

Don't have an account? Register now (free) for customized features, flight alerts, and more!